Time;durP1;ratioP1;P1;durP2;ratioP2;P2;SDS_P1;SDS_P2;PMS_P1;PMS_P2;Temp;Humidity;BMP_temperature;BMP_pressure;BME280_temperature;BME280_humidity;BME280_pressure;Samples;Min_cycle;Max_cycle;Signal;HPM_P1;HPM_P2
2021/04/12 00:01:43;;;;;;;0.20;0.20;;;;;;;;;;5021061;28;20458;-66
2021/04/12 00:04:09;;;;;;;0.20;0.20;;;;;;;;;;5016825;28;20033;-65
2021/04/12 00:06:41;;;;;;;0.20;0.20;;;;;;;;;;5012567;28;20279;-65
2021/04/12 00:09:09;;;;;;;0.20;0.20;;;;;;;;;;4995068;28;20043;-65
2021/04/12 00:11:54;;;;;;;0.20;0.20;;;;;;;;;;5001271;28;20030;-65
2021/04/12 00:14:27;;;;;;;0.20;0.20;;;;;;;;;;5018470;28;20033;-66
2021/04/12 00:16:58;;;;;;;0.10;0.10;;;;;;;;;;5043152;28;20102;-66
2021/04/12 00:19:26;;;;;;;0.20;0.20;;;;;;;;;;5035552;28;20036;-65
2021/04/12 00:21:57;;;;;;;0.20;0.20;;;;;;;;;;5016931;28;20539;-65
2021/04/12 00:24:23;;;;;;;0.20;0.20;;;;;;;;;;5026254;28;20031;-65
2021/04/12 00:27:06;;;;;;;0.20;0.20;;;;;;;;;;5024821;28;20029;-65
2021/04/12 00:29:43;;;;;;;0.20;0.20;;;;;;;;;;5023101;28;20041;-65
2021/04/12 00:32:32;;;;;;;0.20;0.20;;;;;;;;;;5036783;28;20049;-66
2021/04/12 00:35:03;;;;;;;0.20;0.20;;;;;;;;;;5026399;28;20037;-66
2021/04/12 00:37:28;;;;;;;0.20;0.20;;;;;;;;;;5042342;28;20025;-66
2021/04/12 00:40:17;;;;;;;0.20;0.20;;;;;;;;;;5037910;28;20025;-66
2021/04/12 00:42:48;;;;;;;0.20;0.20;;;;;;;;;;5004586;28;20036;-65
2021/04/12 00:45:26;;;;;;;0.20;0.20;;;;;;;;;;5008584;28;20128;-65
2021/04/12 00:48:06;;;;;;;0.20;0.20;;;;;;;;;;5018288;28;20060;-66
2021/04/12 00:50:31;;;;;;;0.20;0.20;;;;;;;;;;5012469;28;20080;-66
2021/04/12 00:53:03;;;;;;;0.20;0.20;;;;;;;;;;5024019;28;20065;-66
2021/04/12 00:55:32;;;;;;;0.20;0.20;;;;;;;;;;5012887;28;20060;-66
2021/04/12 00:58:17;;;;;;;0.20;0.20;;;;;;;;;;5029299;28;20026;-66
2021/04/12 01:01:03;;;;;;;0.20;0.20;;;;;;;;;;5023877;28;20033;-65
2021/04/12 01:04:06;;;;;;;0.20;0.20;;;;;;;;;;5012615;28;20045;-66
2021/04/12 01:06:40;;;;;;;0.20;0.20;;;;;;;;;;4931329;28;20118;-66
2021/04/12 01:09:16;;;;;;;0.20;0.20;;;;;;;;;;4936393;29;20027;-66
2021/04/12 01:11:48;;;;;;;0.20;0.20;;;;;;;;;;4972477;28;20041;-66
2021/04/12 01:14:32;;;;;;;0.20;0.20;;;;;;;;;;5027259;28;20029;-66
2021/04/12 01:17:29;;;;;;;0.20;0.20;;;;;;;;;;5011995;28;20040;-65
2021/04/12 01:19:54;;;;;;;0.20;0.20;;;;;;;;;;4957857;28;20497;-66
2021/04/12 01:22:39;;;;;;;0.20;0.20;;;;;;;;;;5008919;28;20025;-65
2021/04/12 01:25:22;;;;;;;0.20;0.20;;;;;;;;;;5029336;28;20033;-65
2021/04/12 01:27:50;;;;;;;0.20;0.20;;;;;;;;;;5028926;28;20111;-66
2021/04/12 01:30:23;;;;;;;0.20;0.20;;;;;;;;;;5011599;28;20033;-65
2021/04/12 01:32:52;;;;;;;0.20;0.20;;;;;;;;;;5012025;28;20030;-65
2021/04/12 01:35:17;;;;;;;0.20;0.20;;;;;;;;;;5012351;28;20804;-65
2021/04/12 01:37:43;;;;;;;0.20;0.20;;;;;;;;;;5011900;28;20033;-65
2021/04/12 01:40:28;;;;;;;0.20;0.20;;;;;;;;;;5012577;28;20037;-65
2021/04/12 01:42:54;;;;;;;0.20;0.20;;;;;;;;;;5011549;28;20044;-66
2021/04/12 01:45:23;;;;;;;0.20;0.20;;;;;;;;;;4995902;28;20502;-65
2021/04/12 01:47:51;;;;;;;0.20;0.20;;;;;;;;;;5012309;28;20041;-65
2021/04/12 01:50:28;;;;;;;0.20;0.20;;;;;;;;;;5044112;28;20056;-65
2021/04/12 01:53:06;;;;;;;0.20;0.20;;;;;;;;;;5028416;28;20076;-65
2021/04/12 01:55:45;;;;;;;0.20;0.20;;;;;;;;;;5029225;28;20485;-65
2021/04/12 01:58:29;;;;;;;0.20;0.20;;;;;;;;;;5013606;28;20052;-65
2021/04/12 02:01:13;;;;;;;0.20;0.20;;;;;;;;;;5042868;28;20056;-65
2021/04/12 02:03:56;;;;;;;0.20;0.20;;;;;;;;;;5034995;28;20021;-65
2021/04/12 02:06:24;;;;;;;0.20;0.20;;;;;;;;;;5042674;28;20104;-65
2021/04/12 02:08:58;;;;;;;0.20;0.20;;;;;;;;;;5029325;28;20044;-65
2021/04/12 02:11:32;;;;;;;0.20;0.20;;;;;;;;;;5050024;28;20025;-65
2021/04/12 02:14:07;;;;;;;0.20;0.20;;;;;;;;;;5027887;28;20037;-65
2021/04/12 02:16:51;;;;;;;0.20;0.20;;;;;;;;;;5037837;28;20521;-66
2021/04/12 02:19:33;;;;;;;0.20;0.20;;;;;;;;;;5041106;28;20022;-65
2021/04/12 02:22:16;;;;;;;0.25;0.25;;;;;;;;;;5031863;28;20025;-65
2021/04/12 02:24:44;;;;;;;0.20;0.20;;;;;;;;;;5021688;28;20014;-65
2021/04/12 02:27:11;;;;;;;0.20;0.20;;;;;;;;;;5044245;28;20040;-65
2021/04/12 02:29:44;;;;;;;0.20;0.20;;;;;;;;;;5029891;28;20075;-65
2021/04/12 02:32:09;;;;;;;0.20;0.20;;;;;;;;;;5015601;28;20124;-65
2021/04/12 02:34:43;;;;;;;0.20;0.20;;;;;;;;;;5032375;28;20048;-65
2021/04/12 02:37:08;;;;;;;0.20;0.20;;;;;;;;;;5030545;28;20302;-65
2021/04/12 02:39:40;;;;;;;0.20;0.20;;;;;;;;;;5026117;28;20427;-65
2021/04/12 02:42:08;;;;;;;0.20;0.20;;;;;;;;;;5024150;28;20029;-65
2021/04/12 02:44:33;;;;;;;0.20;0.20;;;;;;;;;;5026518;28;20040;-65
2021/04/12 02:47:07;;;;;;;0.20;0.20;;;;;;;;;;5027484;28;20033;-66
2021/04/12 02:49:33;;;;;;;0.20;0.20;;;;;;;;;;5024556;28;20055;-65
2021/04/12 02:52:00;;;;;;;0.20;0.20;;;;;;;;;;5041632;28;20406;-65
2021/04/12 02:54:35;;;;;;;0.20;0.20;;;;;;;;;;5017093;28;20057;-65
2021/04/12 02:57:12;;;;;;;0.20;0.20;;;;;;;;;;5034969;28;20037;-66
2021/04/12 02:59:38;;;;;;;0.22;0.22;;;;;;;;;;5028480;28;20426;-65
2021/04/12 03:02:22;;;;;;;0.20;0.20;;;;;;;;;;5035983;28;20037;-65
2021/04/12 03:04:56;;;;;;;0.25;0.25;;;;;;;;;;5039424;28;20252;-66
2021/04/12 03:07:28;;;;;;;0.20;0.20;;;;;;;;;;5008749;28;20034;-65
2021/04/12 03:09:55;;;;;;;0.20;0.20;;;;;;;;;;5040603;28;20120;-65
2021/04/12 03:12:39;;;;;;;0.20;0.20;;;;;;;;;;5032292;28;20042;-66
2021/04/12 03:15:28;;;;;;;0.20;0.20;;;;;;;;;;5051932;28;20074;-66
2021/04/12 03:18:12;;;;;;;0.20;0.20;;;;;;;;;;5023945;28;20032;-65
2021/04/12 03:20:37;;;;;;;0.30;0.30;;;;;;;;;;5022143;28;20060;-66
2021/04/12 03:23:17;;;;;;;0.20;0.20;;;;;;;;;;5032841;28;20033;-65
2021/04/12 03:26:03;;;;;;;0.20;0.20;;;;;;;;;;5052977;28;20302;-65
2021/04/12 03:28:37;;;;;;;0.20;0.20;;;;;;;;;;5034230;28;20021;-65
2021/04/12 03:31:02;;;;;;;0.30;0.30;;;;;;;;;;5043093;28;20394;-66
2021/04/12 03:33:36;;;;;;;0.20;0.20;;;;;;;;;;5029458;28;20087;-66
2021/04/12 03:36:07;;;;;;;0.20;0.20;;;;;;;;;;5043208;28;20320;-65
2021/04/12 03:38:45;;;;;;;0.20;0.20;;;;;;;;;;5015013;28;20119;-65
2021/04/12 03:41:14;;;;;;;0.20;0.20;;;;;;;;;;5033461;28;20025;-66
2021/04/12 03:44:09;;;;;;;0.20;0.20;;;;;;;;;;5024643;28;20375;-65
2021/04/12 03:46:53;;;;;;;0.30;0.30;;;;;;;;;;5013994;28;20782;-66
2021/04/12 03:49:18;;;;;;;0.20;0.20;;;;;;;;;;5046640;28;20051;-66
2021/04/12 03:51:58;;;;;;;0.30;0.30;;;;;;;;;;5041663;28;20048;-65
2021/04/12 03:54:23;;;;;;;0.20;0.20;;;;;;;;;;5046184;28;20771;-65
2021/04/12 03:57:07;;;;;;;0.20;0.20;;;;;;;;;;5039301;28;20029;-66
2021/04/12 03:59:38;;;;;;;0.20;0.20;;;;;;;;;;5045642;28;20266;-66
2021/04/12 04:02:22;;;;;;;0.20;0.20;;;;;;;;;;5039378;28;20033;-66
2021/04/12 04:04:50;;;;;;;0.30;0.30;;;;;;;;;;5036049;28;20511;-66
2021/04/12 04:07:28;;;;;;;0.28;0.28;;;;;;;;;;5027098;28;20036;-66
2021/04/12 04:10:11;;;;;;;0.20;0.20;;;;;;;;;;5043061;28;20096;-65
2021/04/12 04:12:55;;;;;;;0.20;0.20;;;;;;;;;;5007845;28;20043;-66
2021/04/12 04:15:27;;;;;;;0.20;0.20;;;;;;;;;;5035290;28;20087;-66
2021/04/12 04:17:55;;;;;;;0.20;0.20;;;;;;;;;;5048707;28;20029;-65
2021/04/12 04:20:39;;;;;;;0.20;0.20;;;;;;;;;;5028238;28;20404;-65
2021/04/12 04:23:24;;;;;;;0.20;0.20;;;;;;;;;;5032894;28;20123;-65
2021/04/12 04:25:55;;;;;;;0.30;0.30;;;;;;;;;;5027629;28;20401;-65
2021/04/12 04:28:39;;;;;;;0.20;0.20;;;;;;;;;;5044863;28;20036;-65
2021/04/12 04:31:26;;;;;;;0.20;0.20;;;;;;;;;;5033202;28;20033;-65
2021/04/12 04:33:57;;;;;;;0.20;0.20;;;;;;;;;;5041953;28;20025;-65
2021/04/12 04:36:31;;;;;;;0.20;0.20;;;;;;;;;;5007387;28;20041;-66
2021/04/12 04:39:12;;;;;;;0.20;0.20;;;;;;;;;;5019651;28;20026;-65
2021/04/12 04:41:37;;;;;;;0.20;0.20;;;;;;;;;;5036887;28;20509;-65
2021/04/12 04:44:02;;;;;;;0.20;0.20;;;;;;;;;;5029394;28;20045;-65
2021/04/12 04:46:30;;;;;;;0.20;0.20;;;;;;;;;;5051202;28;20260;-65
2021/04/12 04:48:58;;;;;;;0.20;0.20;;;;;;;;;;5030895;28;20295;-65
2021/04/12 04:51:26;;;;;;;0.20;0.20;;;;;;;;;;5037975;28;20034;-66
2021/04/12 04:54:04;;;;;;;0.20;0.20;;;;;;;;;;5037290;28;20160;-65
2021/04/12 04:56:51;;;;;;;0.20;0.20;;;;;;;;;;5009575;28;20035;-65
2021/04/12 04:59:36;;;;;;;0.20;0.20;;;;;;;;;;5030992;28;20769;-65
2021/04/12 05:02:02;;;;;;;0.30;0.30;;;;;;;;;;5048418;28;20154;-66
2021/04/12 05:04:28;;;;;;;0.20;0.20;;;;;;;;;;5028139;28;20048;-65
2021/04/12 05:07:16;;;;;;;0.20;0.20;;;;;;;;;;5049031;28;20668;-66
2021/04/12 05:10:02;;;;;;;0.20;0.20;;;;;;;;;;5026732;28;20374;-64
2021/04/12 05:12:27;;;;;;;0.20;0.20;;;;;;;;;;5043832;28;20136;-65
2021/04/12 05:15:01;;;;;;;0.20;0.20;;;;;;;;;;5039486;28;20113;-65
2021/04/12 05:17:32;;;;;;;0.20;0.20;;;;;;;;;;5028573;28;20866;-65
2021/04/12 05:20:12;;;;;;;0.20;0.20;;;;;;;;;;5042367;28;20082;-65
2021/04/12 05:22:49;;;;;;;0.20;0.20;;;;;;;;;;5038828;28;20037;-65
2021/04/12 05:25:33;;;;;;;0.20;0.20;;;;;;;;;;5025691;28;20846;-65
2021/04/12 05:27:58;;;;;;;0.20;0.20;;;;;;;;;;5029299;28;20529;-65
2021/04/12 05:30:42;;;;;;;0.25;0.25;;;;;;;;;;5048771;28;20037;-65
2021/04/12 05:33:07;;;;;;;0.20;0.20;;;;;;;;;;5045950;28;20167;-65
2021/04/12 05:35:39;;;;;;;0.28;0.28;;;;;;;;;;5047856;28;20430;-65
2021/04/12 05:38:07;;;;;;;0.20;0.20;;;;;;;;;;5042979;28;20021;-65
2021/04/12 05:40:50;;;;;;;0.30;0.30;;;;;;;;;;5027475;28;20436;-65
2021/04/12 05:43:21;;;;;;;0.20;0.20;;;;;;;;;;5020421;28;20037;-65
2021/04/12 05:46:25;;;;;;;0.20;0.20;;;;;;;;;;5029225;28;20730;-65
2021/04/12 05:49:20;;;;;;;0.20;0.20;;;;;;;;;;4971332;28;20045;-65
2021/04/12 05:52:04;;;;;;;0.20;0.20;;;;;;;;;;4903465;28;20515;-65
2021/04/12 05:54:48;;;;;;;0.20;0.20;;;;;;;;;;5019693;28;20038;-65
2021/04/12 05:57:16;;;;;;;0.20;0.20;;;;;;;;;;5031756;28;20040;-65
2021/04/12 05:59:43;;;;;;;0.20;0.20;;;;;;;;;;5030199;28;20500;-65
2021/04/12 06:02:09;;;;;;;0.22;0.22;;;;;;;;;;5031502;28;20358;-65
2021/04/12 06:04:42;;;;;;;0.30;0.30;;;;;;;;;;5050220;28;20031;-65
2021/04/12 06:07:27;;;;;;;0.20;0.20;;;;;;;;;;5031216;28;20473;-65
2021/04/12 06:10:05;;;;;;;0.20;0.20;;;;;;;;;;4972867;28;20037;-65
2021/04/12 06:12:39;;;;;;;0.20;0.20;;;;;;;;;;5041012;28;20108;-65
2021/04/12 06:15:10;;;;;;;0.20;0.20;;;;;;;;;;5032803;28;20025;-65
2021/04/12 06:17:46;;;;;;;0.20;0.20;;;;;;;;;;5049827;28;20512;-65
2021/04/12 06:20:32;;;;;;;0.20;0.20;;;;;;;;;;5031293;28;20402;-65
2021/04/12 06:23:34;;;;;;;0.20;0.20;;;;;;;;;;5031781;28;20055;-65
2021/04/12 06:26:18;;;;;;;0.20;0.20;;;;;;;;;;4984797;28;20102;-65
2021/04/12 06:28:56;;;;;;;0.20;0.20;;;;;;;;;;5044910;28;20068;-65
2021/04/12 06:31:40;;;;;;;0.20;0.20;;;;;;;;;;5052586;28;20504;-65
2021/04/12 06:34:23;;;;;;;0.20;0.20;;;;;;;;;;5051044;28;20069;-65
2021/04/12 06:37:07;;;;;;;0.20;0.20;;;;;;;;;;5034775;28;20712;-65
2021/04/12 06:39:41;;;;;;;0.20;0.20;;;;;;;;;;5050774;28;20057;-65
2021/04/12 06:42:25;;;;;;;0.20;0.20;;;;;;;;;;5009689;28;20082;-65
2021/04/12 06:45:00;;;;;;;0.20;0.20;;;;;;;;;;5052973;28;20440;-65
2021/04/12 06:47:43;;;;;;;0.20;0.20;;;;;;;;;;5053464;28;20025;-65
2021/04/12 06:50:14;;;;;;;0.20;0.20;;;;;;;;;;5049211;28;20077;-65
2021/04/12 06:52:45;;;;;;;0.20;0.20;;;;;;;;;;5007070;28;20099;-65
2021/04/12 06:55:17;;;;;;;0.20;0.20;;;;;;;;;;5035487;28;20072;-65
2021/04/12 06:57:42;;;;;;;0.20;0.20;;;;;;;;;;5035323;28;20025;-65
2021/04/12 07:00:26;;;;;;;0.20;0.20;;;;;;;;;;5039718;28;20041;-65
2021/04/12 07:02:54;;;;;;;0.20;0.20;;;;;;;;;;5038281;28;20036;-65
2021/04/12 07:05:19;;;;;;;0.20;0.20;;;;;;;;;;5020838;28;20033;-65
2021/04/12 07:08:08;;;;;;;0.20;0.20;;;;;;;;;;5020304;28;20706;-65
2021/04/12 07:10:35;;;;;;;0.20;0.20;;;;;;;;;;5036916;28;20287;-65
2021/04/12 07:13:36;;;;;;;0.20;0.20;;;;;;;;;;5033809;28;20064;-65
2021/04/12 07:16:04;;;;;;;0.20;0.20;;;;;;;;;;4955813;28;20028;-65
2021/04/12 07:18:47;;;;;;;0.20;0.20;;;;;;;;;;4999349;28;20402;-65
2021/04/12 07:21:15;;;;;;;0.10;0.10;;;;;;;;;;5038069;28;20416;-65
2021/04/12 07:23:59;;;;;;;0.20;0.20;;;;;;;;;;5038224;28;20035;-65
2021/04/12 07:26:43;;;;;;;0.20;0.20;;;;;;;;;;5042946;28;20031;-65
2021/04/12 07:29:22;;;;;;;0.20;0.20;;;;;;;;;;5035282;28;20048;-65
2021/04/12 07:31:50;;;;;;;0.10;0.10;;;;;;;;;;5008392;28;20037;-65
2021/04/12 07:34:27;;;;;;;0.20;0.20;;;;;;;;;;5038501;28;20033;-64
2021/04/12 07:36:55;;;;;;;0.20;0.20;;;;;;;;;;5044804;28;20522;-64
2021/04/12 07:39:30;;;;;;;0.15;0.15;;;;;;;;;;5017327;28;20025;-65
2021/04/12 07:42:05;;;;;;;0.20;0.20;;;;;;;;;;5018669;28;20030;-64
2021/04/12 07:44:30;;;;;;;;;;;;;;;;;;5026110;28;20398;-64
2021/04/12 07:46:56;;;;;;;0.20;0.20;;;;;;;;;;5044757;28;19915;-64
2021/04/12 07:49:40;;;;;;;0.20;0.20;;;;;;;;;;5040530;28;20489;-64
2021/04/12 07:52:23;;;;;;;0.20;0.20;;;;;;;;;;5013716;28;20056;-64
2021/04/12 07:55:01;;;;;;;0.20;0.20;;;;;;;;;;5032262;28;20026;-64
2021/04/12 07:57:29;;;;;;;0.20;0.20;;;;;;;;;;5032320;28;20406;-65
2021/04/12 08:00:12;;;;;;;0.20;0.20;;;;;;;;;;5031138;28;20064;-64
2021/04/12 08:02:56;;;;;;;0.20;0.20;;;;;;;;;;5014715;28;20034;-65
2021/04/12 08:05:39;;;;;;;0.20;0.20;;;;;;;;;;5013792;28;20026;-64
2021/04/12 08:08:23;;;;;;;0.20;0.20;;;;;;;;;;5014143;28;20124;-64
2021/04/12 08:10:58;;;;;;;0.20;0.20;;;;;;;;;;5013687;28;20037;-64
2021/04/12 08:13:35;;;;;;;0.10;0.10;;;;;;;;;;5031526;28;20050;-64
2021/04/12 08:16:06;;;;;;;0.10;0.10;;;;;;;;;;5031383;28;20021;-64
2021/04/12 08:18:37;;;;;;;0.10;0.10;;;;;;;;;;5031883;28;20088;-65
2021/04/12 08:21:05;;;;;;;0.20;0.20;;;;;;;;;;5030676;28;20123;-65
2021/04/12 08:23:49;;;;;;;0.20;0.20;;;;;;;;;;5011761;28;20472;-65
2021/04/12 08:26:42;;;;;;;0.20;0.20;;;;;;;;;;5012632;28;20496;-65
2021/04/12 08:29:07;;;;;;;0.20;0.20;;;;;;;;;;5029602;28;20501;-65
2021/04/12 08:31:51;;;;;;;0.20;0.20;;;;;;;;;;5029572;28;20132;-65
2021/04/12 08:34:28;;;;;;;0.13;0.13;;;;;;;;;;5029041;28;20044;-65
2021/04/12 08:36:53;;;;;;;0.10;0.10;;;;;;;;;;5025675;28;20042;-65
2021/04/12 08:39:37;;;;;;;0.13;0.13;;;;;;;;;;5027607;28;20045;-65
2021/04/12 08:42:03;;;;;;;0.10;0.10;;;;;;;;;;5029311;28;20040;-65
2021/04/12 08:44:40;;;;;;;0.10;0.10;;;;;;;;;;5011090;28;20030;-65
2021/04/12 08:47:15;;;;;;;0.10;0.10;;;;;;;;;;5018432;28;20275;-65
2021/04/12 08:50:00;;;;;;;0.10;0.10;;;;;;;;;;5016969;28;20038;-66
2021/04/12 08:52:31;;;;;;;0.10;0.10;;;;;;;;;;5036268;28;20072;-65
2021/04/12 08:54:56;;;;;;;0.20;0.20;;;;;;;;;;5038021;28;20033;-65
2021/04/12 08:57:22;;;;;;;0.20;0.20;;;;;;;;;;5022053;28;20080;-66
2021/04/12 08:59:56;;;;;;;0.10;0.10;;;;;;;;;;5040675;28;20056;-65
2021/04/12 09:02:24;;;;;;;0.10;0.10;;;;;;;;;;5031473;28;20373;-65
2021/04/12 09:05:01;;;;;;;0.10;0.10;;;;;;;;;;5018261;28;20037;-65
2021/04/12 09:07:29;;;;;;;0.10;0.10;;;;;;;;;;5042188;28;20029;-65
2021/04/12 09:10:00;;;;;;;0.20;0.20;;;;;;;;;;5038801;28;20374;-64
2021/04/12 09:12:32;;;;;;;0.20;0.20;;;;;;;;;;5012388;28;20032;-65
2021/04/12 09:15:06;;;;;;;0.17;0.17;;;;;;;;;;5042510;28;20041;-64
2021/04/12 09:17:46;;;;;;;0.17;0.17;;;;;;;;;;5015982;28;21047;-64
2021/04/12 09:20:26;;;;;;;0.10;0.10;;;;;;;;;;5030199;28;20115;-64
2021/04/12 09:22:54;;;;;;;0.20;0.20;;;;;;;;;;5047661;28;20044;-65
2021/04/12 09:25:19;;;;;;;0.10;0.10;;;;;;;;;;5041501;28;20033;-65
2021/04/12 09:27:52;;;;;;;0.10;0.10;;;;;;;;;;5041771;28;20032;-65
2021/04/12 09:30:36;;;;;;;0.10;0.10;;;;;;;;;;5000153;28;20681;-64
2021/04/12 09:33:28;;;;;;;0.20;0.20;;;;;;;;;;5025354;28;20578;-64
2021/04/12 09:36:06;;;;;;;0.52;0.13;;;;;;;;;;4990854;28;20037;-65
2021/04/12 09:38:41;;;;;;;0.10;0.10;;;;;;;;;;5007437;28;20724;-65
2021/04/12 09:41:09;;;;;;;0.10;0.10;;;;;;;;;;5015117;28;20024;-65
2021/04/12 09:43:46;;;;;;;0.10;0.10;;;;;;;;;;5045979;28;20029;-65
2021/04/12 09:46:31;;;;;;;0.20;0.20;;;;;;;;;;5031330;28;20040;-64
2021/04/12 09:49:11;;;;;;;0.20;0.20;;;;;;;;;;5040632;28;20045;-65
2021/04/12 09:51:45;;;;;;;0.10;0.10;;;;;;;;;;5020001;28;20079;-65
2021/04/12 09:54:10;;;;;;;0.10;0.10;;;;;;;;;;5035230;28;20088;-65
2021/04/12 09:56:36;;;;;;;0.10;0.10;;;;;;;;;;5011448;28;20367;-65
2021/04/12 09:59:05;;;;;;;0.10;0.10;;;;;;;;;;5032595;28;20317;-64
2021/04/12 10:01:42;;;;;;;0.10;0.10;;;;;;;;;;5019505;28;20083;-65
2021/04/12 10:04:23;;;;;;;0.10;0.10;;;;;;;;;;5018533;28;20048;-65
2021/04/12 10:06:57;;;;;;;0.10;0.10;;;;;;;;;;5011170;28;20079;-64
2021/04/12 10:09:41;;;;;;;0.10;0.10;;;;;;;;;;5002429;28;20029;-64
2021/04/12 10:12:08;;;;;;;0.10;0.10;;;;;;;;;;5035300;28;20115;-64
2021/04/12 10:14:35;;;;;;;0.10;0.10;;;;;;;;;;5013700;28;20033;-64
2021/04/12 10:17:02;;;;;;;0.10;0.10;;;;;;;;;;5019516;28;20500;-64
2021/04/12 10:19:46;;;;;;;0.10;0.10;;;;;;;;;;5009704;28;20026;-64
2021/04/12 10:22:12;;;;;;;0.10;0.10;;;;;;;;;;5040824;28;20037;-64
2021/04/12 10:24:47;;;;;;;0.10;0.10;;;;;;;;;;5014110;28;20355;-64
2021/04/12 10:27:15;;;;;;;0.10;0.10;;;;;;;;;;5031599;28;20033;-63
2021/04/12 10:29:44;;;;;;;0.10;0.10;;;;;;;;;;5024222;28;20028;-65
2021/04/12 10:32:12;;;;;;;0.10;0.10;;;;;;;;;;5013058;28;20037;-65
2021/04/12 10:34:56;;;;;;;0.10;0.10;;;;;;;;;;5017704;28;20033;-63
2021/04/12 10:37:34;;;;;;;0.10;0.10;;;;;;;;;;5015334;28;20069;-64
2021/04/12 10:40:05;;;;;;;0.10;0.10;;;;;;;;;;5036434;28;20033;-64
2021/04/12 10:42:30;;;;;;;0.10;0.10;;;;;;;;;;5011792;28;20079;-64
2021/04/12 10:44:59;;;;;;;0.10;0.10;;;;;;;;;;5028446;28;20041;-64
2021/04/12 10:47:40;;;;;;;0.10;0.10;;;;;;;;;;4995689;28;20058;-64
2021/04/12 10:50:28;;;;;;;0.10;0.10;;;;;;;;;;5020695;28;20115;-64
2021/04/12 10:52:54;;;;;;;0.10;0.10;;;;;;;;;;5042049;28;20573;-64
2021/04/12 10:55:20;;;;;;;0.00;0.00;;;;;;;;;;5029147;28;20108;-64
2021/04/12 10:57:51;;;;;;;0.10;0.10;;;;;;;;;;5013388;28;20444;-64
2021/04/12 11:00:16;;;;;;;0.10;0.10;;;;;;;;;;5013934;28;20033;-64
2021/04/12 11:02:41;;;;;;;0.10;0.10;;;;;;;;;;5029905;28;20485;-63
2021/04/12 11:05:07;;;;;;;0.10;0.10;;;;;;;;;;5047753;28;20283;-64
2021/04/12 11:07:39;;;;;;;0.10;0.10;;;;;;;;;;5030383;28;20644;-64
2021/04/12 11:10:10;;;;;;;0.10;0.10;;;;;;;;;;5031143;28;20846;-64
2021/04/12 11:12:39;;;;;;;0.15;0.15;;;;;;;;;;5047858;28;20127;-64
2021/04/12 11:15:18;;;;;;;0.10;0.10;;;;;;;;;;5015268;28;20029;-65
2021/04/12 11:18:02;;;;;;;0.10;0.10;;;;;;;;;;5034629;28;20052;-64
2021/04/12 11:20:48;;;;;;;0.10;0.10;;;;;;;;;;5032473;28;20064;-64
2021/04/12 11:23:16;;;;;;;0.10;0.10;;;;;;;;;;5034454;28;20037;-64
2021/04/12 11:26:01;;;;;;;0.10;0.10;;;;;;;;;;5018386;28;20052;-65
2021/04/12 11:28:43;;;;;;;0.10;0.10;;;;;;;;;;5034191;28;20028;-64
2021/04/12 11:31:11;;;;;;;0.10;0.10;;;;;;;;;;5034177;28;20444;-64
2021/04/12 11:33:41;;;;;;;0.10;0.10;;;;;;;;;;5051990;28;20029;-64
2021/04/12 11:36:25;;;;;;;0.03;0.03;;;;;;;;;;5034192;28;20055;-64
2021/04/12 11:39:02;;;;;;;0.00;0.00;;;;;;;;;;5051570;28;20060;-64
2021/04/12 11:41:46;;;;;;;0.00;0.00;;;;;;;;;;5051399;28;20029;-64
2021/04/12 11:44:16;;;;;;;0.00;0.00;;;;;;;;;;5034442;28;20060;-65
2021/04/12 11:46:55;;;;;;;0.00;0.00;;;;;;;;;;5034361;28;20052;-65
2021/04/12 11:49:24;;;;;;;0.00;0.00;;;;;;;;;;5034595;28;20033;-65
2021/04/12 11:52:08;;;;;;;0.00;0.00;;;;;;;;;;5034896;28;20086;-65
2021/04/12 11:54:52;;;;;;;0.00;0.00;;;;;;;;;;5009173;28;20050;-65
2021/04/12 11:57:34;;;;;;;0.00;0.00;;;;;;;;;;5031614;28;20076;-65
2021/04/12 12:00:03;;;;;;;0.00;0.00;;;;;;;;;;5032240;28;20036;-65
2021/04/12 12:02:28;;;;;;;0.00;0.00;;;;;;;;;;5042010;28;20039;-64
2021/04/12 12:04:54;;;;;;;0.00;0.00;;;;;;;;;;5035586;28;20029;-62
2021/04/12 12:07:45;;;;;;;0.00;0.00;;;;;;;;;;5020661;28;20029;-63
2021/04/12 12:10:13;;;;;;;0.00;0.00;;;;;;;;;;5031963;28;20037;-63
2021/04/12 12:12:47;;;;;;;0.00;0.00;;;;;;;;;;5031691;28;20033;-63
2021/04/12 12:15:20;;;;;;;0.00;0.00;;;;;;;;;;5033550;28;20033;-64
2021/04/12 12:17:55;;;;;;;0.00;0.00;;;;;;;;;;5015590;28;20120;-63
2021/04/12 12:20:22;;;;;;;0.00;0.00;;;;;;;;;;5018373;28;20035;-63
2021/04/12 12:22:56;;;;;;;0.00;0.00;;;;;;;;;;5034562;28;20032;-63
2021/04/12 12:25:31;;;;;;;0.00;0.00;;;;;;;;;;5016328;28;20037;-63
2021/04/12 12:28:02;;;;;;;0.00;0.00;;;;;;;;;;5033231;28;20116;-63
2021/04/12 12:30:35;;;;;;;0.00;0.00;;;;;;;;;;5047783;28;20029;-63
2021/04/12 12:33:01;;;;;;;0.00;0.00;;;;;;;;;;5024584;28;20029;-63
2021/04/12 12:35:33;;;;;;;0.00;0.00;;;;;;;;;;5043399;28;21068;-63
2021/04/12 12:38:02;;;;;;;0.00;0.00;;;;;;;;;;5030793;28;20040;-63
2021/04/12 12:40:32;;;;;;;0.00;0.00;;;;;;;;;;5033261;28;20068;-63
2021/04/12 12:43:01;;;;;;;0.00;0.00;;;;;;;;;;5014050;28;20057;-63
2021/04/12 12:45:28;;;;;;;0.00;0.00;;;;;;;;;;5031334;28;20032;-63
2021/04/12 12:47:54;;;;;;;0.00;0.00;;;;;;;;;;5032168;28;20033;-63
2021/04/12 12:50:21;;;;;;;0.00;0.00;;;;;;;;;;5018743;28;20567;-67
2021/04/12 12:53:00;;;;;;;0.00;0.00;;;;;;;;;;5032169;28;20037;-63
2021/04/12 12:55:28;;;;;;;0.00;0.00;;;;;;;;;;5015341;28;20469;-62
2021/04/12 12:57:53;;;;;;;0.00;0.00;;;;;;;;;;5030489;28;20116;-62
2021/04/12 13:00:42;;;;;;;0.00;0.00;;;;;;;;;;5031406;28;20099;-62
2021/04/12 13:03:14;;;;;;;0.00;0.00;;;;;;;;;;5029782;28;20037;-63
2021/04/12 13:05:39;;;;;;;0.00;0.00;;;;;;;;;;5013441;28;20374;-63
2021/04/12 13:08:08;;;;;;;0.00;0.00;;;;;;;;;;5030617;28;20036;-63
2021/04/12 13:10:37;;;;;;;0.00;0.00;;;;;;;;;;5031021;28;20745;-63
2021/04/12 13:13:03;;;;;;;0.00;0.00;;;;;;;;;;5044241;28;20032;-63
2021/04/12 13:15:30;;;;;;;0.00;0.00;;;;;;;;;;5007408;28;20029;-63
2021/04/12 13:18:15;;;;;;;0.00;0.00;;;;;;;;;;5031396;28;20035;-63
2021/04/12 13:20:44;;;;;;;0.00;0.00;;;;;;;;;;5050876;28;20040;-63
2021/04/12 13:23:16;;;;;;;0.00;0.00;;;;;;;;;;5031345;28;20148;-63
2021/04/12 13:25:42;;;;;;;0.00;0.00;;;;;;;;;;5030975;28;20059;-63
2021/04/12 13:28:11;;;;;;;0.00;0.00;;;;;;;;;;5011344;28;20474;-64
2021/04/12 13:30:36;;;;;;;0.00;0.00;;;;;;;;;;5045620;28;20029;-63
2021/04/12 13:33:06;;;;;;;0.00;0.00;;;;;;;;;;5026594;28;20041;-63
2021/04/12 13:35:32;;;;;;;0.00;0.00;;;;;;;;;;5047901;28;20025;-63
2021/04/12 13:38:12;;;;;;;0.00;0.00;;;;;;;;;;5030926;28;20036;-64
2021/04/12 13:40:39;;;;;;;0.00;0.00;;;;;;;;;;5039361;28;20104;-63
2021/04/12 13:43:05;;;;;;;0.00;0.00;;;;;;;;;;5027517;28;20044;-63
2021/04/12 13:45:43;;;;;;;0.00;0.00;;;;;;;;;;5005905;28;20040;-63
2021/04/12 13:48:29;;;;;;;0.00;0.00;;;;;;;;;;5030071;28;20051;-63
2021/04/12 13:50:59;;;;;;;0.00;0.00;;;;;;;;;;5026865;28;20041;-63
2021/04/12 13:53:45;;;;;;;0.00;0.00;;;;;;;;;;5011668;28;20084;-63
2021/04/12 13:56:31;;;;;;;0.00;0.00;;;;;;;;;;5029561;28;20033;-63
2021/04/12 13:59:02;;;;;;;0.00;0.00;;;;;;;;;;4994407;28;20040;-63
2021/04/12 14:01:36;;;;;;;0.00;0.00;;;;;;;;;;5029418;28;20493;-63
2021/04/12 14:04:21;;;;;;;0.00;0.00;;;;;;;;;;5012514;28;20095;-63
2021/04/12 14:07:04;;;;;;;0.00;0.00;;;;;;;;;;5011500;28;20092;-63
2021/04/12 14:09:39;;;;;;;0.00;0.00;;;;;;;;;;5012001;28;20048;-64
2021/04/12 14:12:05;;;;;;;0.00;0.00;;;;;;;;;;5010609;28;20034;-63
2021/04/12 14:14:45;;;;;;;0.00;0.00;;;;;;;;;;5012128;28;20033;-62
2021/04/12 14:17:19;;;;;;;0.00;0.00;;;;;;;;;;5010854;28;20033;-62
2021/04/12 14:19:46;;;;;;;0.00;0.00;;;;;;;;;;4997292;28;20022;-62
2021/04/12 14:22:13;;;;;;;0.00;0.00;;;;;;;;;;5013284;28;20095;-62
2021/04/12 14:24:46;;;;;;;0.00;0.00;;;;;;;;;;4996573;28;20502;-62
2021/04/12 14:27:15;;;;;;;0.00;0.00;;;;;;;;;;5013024;28;20534;-63
2021/04/12 14:29:46;;;;;;;0.00;0.00;;;;;;;;;;4994544;28;20038;-63
2021/04/12 14:32:12;;;;;;;0.00;0.00;;;;;;;;;;5009727;28;20037;-62
2021/04/12 14:34:40;;;;;;;0.00;0.00;;;;;;;;;;5009365;28;20029;-62
2021/04/12 14:37:06;;;;;;;0.00;0.00;;;;;;;;;;5010875;28;20025;-63
2021/04/12 14:39:31;;;;;;;0.00;0.00;;;;;;;;;;5010599;28;20386;-62
2021/04/12 14:41:57;;;;;;;0.00;0.00;;;;;;;;;;5010064;28;20038;-62
2021/04/12 14:44:28;;;;;;;0.00;0.00;;;;;;;;;;5010574;28;20025;-62
2021/04/12 14:46:54;;;;;;;0.00;0.00;;;;;;;;;;5007171;28;20034;-62
2021/04/12 14:49:27;;;;;;;0.00;0.00;;;;;;;;;;4993802;28;20504;-63
2021/04/12 14:52:11;;;;;;;0.00;0.00;;;;;;;;;;5013660;28;20037;-63
2021/04/12 14:54:37;;;;;;;0.00;0.00;;;;;;;;;;5014394;28;20069;-62
2021/04/12 14:57:02;;;;;;;0.00;0.00;;;;;;;;;;5014056;28;20049;-62
2021/04/12 14:59:32;;;;;;;0.00;0.00;;;;;;;;;;5020482;28;20363;-62
2021/04/12 15:01:57;;;;;;;0.00;0.00;;;;;;;;;;4997181;28;20343;-62
2021/04/12 15:04:22;;;;;;;0.08;0.08;;;;;;;;;;4998071;28;20128;-62
2021/04/12 15:06:49;;;;;;;0.00;0.00;;;;;;;;;;5025530;28;20112;-63
2021/04/12 15:09:15;;;;;;;0.10;0.10;;;;;;;;;;5004012;28;20132;-63
2021/04/12 15:11:43;;;;;;;0.10;0.10;;;;;;;;;;5012164;28;20037;-63
2021/04/12 15:14:18;;;;;;;0.00;0.00;;;;;;;;;;5013746;28;20128;-63
2021/04/12 15:16:50;;;;;;;0.00;0.00;;;;;;;;;;5010415;28;20038;-63
2021/04/12 15:19:21;;;;;;;0.00;0.00;;;;;;;;;;5014091;28;20064;-63
2021/04/12 15:21:48;;;;;;;0.00;0.00;;;;;;;;;;5030742;28;20497;-63
2021/04/12 15:24:13;;;;;;;0.10;0.10;;;;;;;;;;5012348;28;20029;-63
2021/04/12 15:26:43;;;;;;;0.00;0.00;;;;;;;;;;4995280;28;20041;-64